createdAt,value
2022-09-13T00:07:36.153Z,3.05
2022-09-13T00:17:38.233Z,3.13
2022-09-13T00:27:40.991Z,2.65
2022-09-13T00:37:42.913Z,2.85
2022-09-13T00:48:00.689Z,2.92
2022-09-13T00:58:10.672Z,2.73
2022-09-13T01:08:19.330Z,3.13
2022-09-13T01:18:21.830Z,2.90
2022-09-13T01:28:48.850Z,3.13
2022-09-13T01:39:08.052Z,2.60
2022-09-13T01:49:30.710Z,3.05
2022-09-13T01:59:59.912Z,3.00
2022-09-13T02:20:22.728Z,3.83
2022-09-13T02:30:24.778Z,3.63
2022-09-13T02:40:36.472Z,3.10
2022-09-13T02:51:03.755Z,4.07
2022-09-13T03:01:06.171Z,3.38
2022-09-13T03:11:24.616Z,3.42
2022-09-13T03:21:49.596Z,3.38
2022-09-13T03:32:17.140Z,3.47
2022-09-13T03:42:46.274Z,4.18
2022-09-13T03:52:50.881Z,3.70
2022-09-13T04:02:53.936Z,3.97
2022-09-13T04:12:57.795Z,3.85
2022-09-13T04:23:00.857Z,4.00
2022-09-13T04:33:02.981Z,4.47
2022-09-13T04:43:05.519Z,3.85
2022-09-13T04:53:07.496Z,4.05
2022-09-13T05:03:09.299Z,4.38
2022-09-13T05:13:11.518Z,4.10
2022-09-13T05:23:13.357Z,3.90
2022-09-13T05:33:15.355Z,4.03
2022-09-13T05:43:17.641Z,3.63
2022-09-13T05:53:19.680Z,4.03
2022-09-13T06:03:21.877Z,4.00
2022-09-13T06:13:23.976Z,3.75
2022-09-13T06:23:25.838Z,4.43
2022-09-13T06:33:27.798Z,4.53
2022-09-13T06:43:29.560Z,4.43
2022-09-13T06:53:32.021Z,4.90
2022-09-13T07:03:33.783Z,5.13
2022-09-13T07:13:35.683Z,5.10
2022-09-13T07:23:40.674Z,5.10
2022-09-13T07:33:45.356Z,6.55
2022-09-13T07:43:47.562Z,7.25
2022-09-13T07:53:57.500Z,6.97
2022-09-13T08:04:01.985Z,7.32
2022-09-13T08:14:08.355Z,7.03
2022-09-13T08:24:18.677Z,7.22
2022-09-13T08:34:22.062Z,7.70
2022-09-13T08:44:56.480Z,7.03
2022-09-13T08:55:00.142Z,6.32
2022-09-13T09:05:14.357Z,8.60
2022-09-13T09:15:24.481Z,6.50
2022-09-13T09:25:28.758Z,6.65
2022-09-13T09:35:58.241Z,6.25
2022-09-13T09:46:02.067Z,6.07
2022-09-13T09:56:11.418Z,6.80
2022-09-13T10:06:27.481Z,6.97
2022-09-13T10:16:41.005Z,6.60
2022-09-13T10:26:46.082Z,4.82
2022-09-13T10:37:23.420Z,5.43
2022-09-13T10:47:42.757Z,6.65
2022-09-13T10:57:45.360Z,7.90
2022-09-13T11:08:10.539Z,7.22
2022-09-13T11:18:41.522Z,6.60
2022-09-13T11:29:21.197Z,7.70
2022-09-13T11:39:40.294Z,9.02
2022-09-13T11:49:57.480Z,8.63
2022-09-13T12:00:26.401Z,9.30
2022-09-13T12:10:29.639Z,10.20
2022-09-13T12:21:05.979Z,8.00
2022-09-13T12:31:21.832Z,7.60
2022-09-13T12:41:57.717Z,6.90
2022-09-13T12:52:32.642Z,6.25
2022-09-13T13:02:59.898Z,6.30
2022-09-13T13:13:29.377Z,5.80
2022-09-13T13:23:37.600Z,5.53
2022-09-13T13:34:18.017Z,4.80
2022-09-13T13:44:20.042Z,4.10
2022-09-13T13:54:59.615Z,4.75
2022-09-13T14:05:32.820Z,4.47
2022-09-13T14:15:59.118Z,5.20
2022-09-13T14:26:07.194Z,4.53
2022-09-13T14:36:23.378Z,3.83
2022-09-13T14:46:38.379Z,4.70
2022-09-13T14:56:51.362Z,4.82
2022-09-13T15:07:21.200Z,6.15
2022-09-13T15:17:26.119Z,3.58
2022-09-13T15:27:49.694Z,4.35
2022-09-13T15:38:17.897Z,4.63
2022-09-13T15:48:33.497Z,5.00
2022-09-13T15:58:36.838Z,4.70
2022-09-13T16:08:39.636Z,4.72
2022-09-13T16:18:42.079Z,4.80
2022-09-13T16:28:45.843Z,4.07
2022-09-13T16:38:47.817Z,4.50
2022-09-13T16:48:59.401Z,5.32
2022-09-13T16:59:01.399Z,4.88
2022-09-13T17:09:05.282Z,6.00
2022-09-13T17:19:16.274Z,6.82
2022-09-13T17:29:18.638Z,8.27
2022-09-13T17:39:20.797Z,6.78
2022-09-13T17:49:22.797Z,7.10
2022-09-13T17:59:25.159Z,7.07
2022-09-13T18:09:27.477Z,7.50
2022-09-13T18:19:45.846Z,6.97
2022-09-13T18:29:50.558Z,6.63
2022-09-13T18:39:52.744Z,5.95
2022-09-13T18:49:54.716Z,5.43
2022-09-13T18:59:56.534Z,5.65
2022-09-13T19:09:58.355Z,6.32
2022-09-13T19:20:00.995Z,6.97
2022-09-13T19:30:02.857Z,7.32
2022-09-13T19:40:06.019Z,5.95
2022-09-13T19:50:08.418Z,5.85
2022-09-13T20:00:11.836Z,5.00
2022-09-13T20:10:13.716Z,5.85
2022-09-13T20:20:15.757Z,6.78
2022-09-13T20:30:17.955Z,5.75
2022-09-13T20:40:20.410Z,4.80
2022-09-13T20:50:22.357Z,5.75
2022-09-13T21:00:23.852Z,5.50
2022-09-13T21:10:26.556Z,5.40
2022-09-13T21:20:28.633Z,5.40
2022-09-13T21:30:30.911Z,4.70
2022-09-13T21:40:33.084Z,5.32
2022-09-13T21:50:35.352Z,4.97
2022-09-13T22:00:41.757Z,5.43
2022-09-13T22:10:45.196Z,4.10
2022-09-13T22:20:47.795Z,3.70
2022-09-13T22:30:49.960Z,3.55
2022-09-13T22:40:59.134Z,3.20
2022-09-13T22:51:02.681Z,3.00
2022-09-13T23:01:16.626Z,2.45
2022-09-13T23:11:33.639Z,2.40
2022-09-13T23:21:38.135Z,2.40
2022-09-13T23:31:41.892Z,1.83
2022-09-13T23:41:44.456Z,2.45
2022-09-13T23:51:50.737Z,3.50
